Strona główna
METAR-TAF:

METAR-TAF

Lotnisko :

Port lotniczy Győr-Pér

Győr, Węgry

Szerokość geograficzna: 47-37-28N, Długość geograficzna: 017-48-49E, wysokość: 129 m

Aktualna obserwacja pogody

Raport powstał 41 minut temu, godzina 10:45 UTC
Wiatr 7 kt od północno-północny zachód, zmienny między zachód i północno-północny wschód
Temperatura 14°C
Wilgotność 31%
Ciśnienie 1014 hPa
Widzialność 10 km lub więcej
Brak chmur poniżej 1500 m i brak chmur cumulonimbus

METAR: LHPR 031045Z AUTO 33007KT 270V020 CAVOK 14/M03 Q1014

czas: 13:26 (11:26 UTC)

Prognoza

Raport powstał 3 godziny i 11 minut temu, godzina 08:15 UTC
Prognoza ważna od 03 godzina 09 UTC do 03 godzina 18 UTC
Wiatr 5 kt od zachód
Widzialność 10 km lub więcej
Brak chmur poniżej 1500 m i brak chmur cumulonimbus
Stopniowe zmiany
od 03 godzina 09 UTC do 03 godzina 12 UTC
Wiatr 12 kt od północny zachód

TAF: LHPR 030815Z 0309/0318 28005KT CAVOK BECMG 0309/0312 31012KT

Obserwacja i prognoza pogody dla ponad 4000 lotnisk (raport METAR i TAF).

Dostępne stacje oznaczono żółtymi i czerwonymi punktami na mapie.

Najedź kursorem aby zobaczyć nazwę stacji.

Kliknij aby zobaczyć obserwacje i prognozy pogody.

Aby zmienić mapę: kliknij na zielony przycisk z czarnym krzyżykiem, aby powiększyć; na zielony przycisk z myślnikiem, aby pomniejszyć; na zielone strzałki, aby przejść do map sąsiednich.


METAR-TAF: